createdAt,value
2024-03-14T00:01:51.816Z,100830.88
2024-03-14T00:04:21.328Z,100835.56
2024-03-14T00:06:49.681Z,100837.53
2024-03-14T00:09:19.098Z,100834.28
2024-03-14T00:11:47.546Z,100838.03
2024-03-14T00:14:15.766Z,100841.44
2024-03-14T00:16:44.449Z,100841.97
2024-03-14T00:19:12.596Z,100830.16
2024-03-14T00:21:42.958Z,100833.53
2024-03-14T00:24:11.202Z,100835.50
2024-03-14T00:26:39.422Z,100834.84
2024-03-14T00:29:09.984Z,100836.09
2024-03-14T00:31:41.947Z,100835.84
2024-03-14T00:34:11.200Z,100841.56
2024-03-14T00:36:39.494Z,100829.84
2024-03-14T00:39:07.849Z,100829.41
2024-03-14T00:41:36.130Z,100828.59
2024-03-14T00:44:04.423Z,100833.09
2024-03-14T00:46:34.234Z,100829.78
2024-03-14T00:49:02.480Z,100833.59
2024-03-14T00:51:30.765Z,100834.53
2024-03-14T00:53:59.175Z,100830.16
2024-03-14T00:56:30.338Z,100832.13
2024-03-14T00:58:58.645Z,100833.38
2024-03-14T01:01:27.004Z,100832.25
2024-03-14T01:03:56.080Z,100830.72
2024-03-14T01:06:26.207Z,100825.44
2024-03-14T01:08:55.134Z,100826.28
2024-03-14T01:11:24.344Z,100821.16
2024-03-14T01:13:52.650Z,100821.53
2024-03-14T01:16:20.966Z,100818.50
2024-03-14T01:18:51.450Z,100819.81
2024-03-14T01:21:21.757Z,100813.94
2024-03-14T01:23:50.401Z,100819.66
2024-03-14T01:26:21.734Z,100818.41
2024-03-14T01:28:51.337Z,100817.75
2024-03-14T01:31:19.928Z,100810.97
2024-03-14T01:33:48.633Z,100805.28
2024-03-14T01:36:17.069Z,100803.66
2024-03-14T01:38:45.349Z,100808.19
2024-03-14T01:41:31.850Z,100804.94
2024-03-14T01:44:00.861Z,100797.16
2024-03-14T01:46:30.559Z,100797.06
2024-03-14T01:49:00.982Z,100797.91
2024-03-14T01:51:30.748Z,100800.91
2024-03-14T01:54:00.816Z,100801.66
2024-03-14T01:56:29.488Z,100802.50
2024-03-14T01:58:57.701Z,100799.16
2024-03-14T02:01:26.236Z,100793.16
2024-03-14T02:03:59.924Z,100797.97
2024-03-14T02:06:41.533Z,100789.09
2024-03-14T02:09:09.965Z,100792.22
2024-03-14T02:11:38.925Z,100797.78
2024-03-14T02:14:08.024Z,100786.03
2024-03-14T02:16:37.288Z,100797.53
2024-03-14T02:19:08.558Z,100785.56
2024-03-14T02:21:36.906Z,100791.50
2024-03-14T02:24:05.285Z,100790.00
2024-03-14T02:26:39.387Z,100794.38
2024-03-14T02:29:08.935Z,100795.50
2024-03-14T02:31:39.896Z,100789.53
2024-03-14T02:34:08.047Z,100788.34
2024-03-14T02:36:39.110Z,100790.69
2024-03-14T02:39:08.255Z,100783.91
2024-03-14T02:41:36.470Z,100789.91
2024-03-14T02:44:16.355Z,100785.56
2024-03-14T02:46:46.475Z,100786.75
2024-03-14T02:49:15.676Z,100780.91
2024-03-14T02:51:46.565Z,100781.91
2024-03-14T02:54:18.337Z,100782.00
2024-03-14T02:56:51.305Z,100780.31
2024-03-14T02:59:23.248Z,100778.38
2024-03-14T03:01:52.067Z,100778.75
2024-03-14T03:04:20.528Z,100780.69
2024-03-14T03:06:56.263Z,100773.81
2024-03-14T03:09:27.426Z,100780.41
2024-03-14T03:11:55.827Z,100783.19
2024-03-14T03:14:24.405Z,100780.78
2024-03-14T03:16:52.663Z,100779.09
2024-03-14T03:19:20.861Z,100779.09
2024-03-14T03:21:49.132Z,100773.00
2024-03-14T03:24:17.431Z,100773.91
2024-03-14T03:26:45.710Z,100779.31
2024-03-14T03:29:14.759Z,100778.09
2024-03-14T03:31:43.067Z,100785.31
2024-03-14T03:34:11.485Z,100777.72
2024-03-14T03:36:40.706Z,100784.13
2024-03-14T03:39:13.806Z,100783.63
2024-03-14T03:41:44.834Z,100783.06
2024-03-14T03:44:12.980Z,100782.50
2024-03-14T03:46:45.832Z,100783.72
2024-03-14T03:49:14.235Z,100784.81
2024-03-14T03:51:42.470Z,100782.31
2024-03-14T03:54:10.830Z,100783.22
2024-03-14T03:56:41.768Z,100784.16
2024-03-14T03:59:09.916Z,100787.03
2024-03-14T04:01:38.170Z,100790.97
2024-03-14T04:04:06.457Z,100784.38
2024-03-14T04:06:34.867Z,100784.56
2024-03-14T04:09:06.443Z,100793.34
2024-03-14T04:11:34.748Z,100788.34
2024-03-14T04:14:03.298Z,100786.31
2024-03-14T04:16:31.506Z,100784.47
2024-03-14T04:18:59.848Z,100794.00
2024-03-14T04:21:28.525Z,100794.00
2024-03-14T04:24:01.749Z,100791.22
2024-03-14T04:26:29.923Z,100794.59
2024-03-14T04:28:57.992Z,100794.13
2024-03-14T04:31:28.100Z,100788.94
2024-03-14T04:33:56.440Z,100797.22
2024-03-14T04:36:24.706Z,100799.22
2024-03-14T04:38:53.090Z,100801.16
2024-03-14T04:41:22.274Z,100802.19
2024-03-14T04:43:50.463Z,100799.00
2024-03-14T04:46:19.022Z,100795.69
2024-03-14T04:48:47.427Z,100797.19
2024-03-14T04:51:15.668Z,100800.78
2024-03-14T04:53:43.874Z,100796.59
2024-03-14T04:56:12.459Z,100801.69
2024-03-14T04:58:40.716Z,100795.50
2024-03-14T05:01:09.875Z,100793.81
2024-03-14T05:03:39.507Z,100794.50
2024-03-14T05:06:08.524Z,100798.84
2024-03-14T05:08:36.825Z,100798.09
2024-03-14T05:11:05.130Z,100802.03
2024-03-14T05:13:33.306Z,100801.84
2024-03-14T05:16:01.552Z,100806.09
2024-03-14T05:18:29.856Z,100808.78
2024-03-14T05:20:58.193Z,100805.28
2024-03-14T05:23:26.900Z,100806.75
2024-03-14T05:25:55.828Z,100807.69
2024-03-14T05:28:24.179Z,100799.91
2024-03-14T05:30:53.777Z,100799.91
2024-03-14T05:33:22.117Z,100801.47
2024-03-14T05:35:51.502Z,100806.50
2024-03-14T05:38:20.022Z,100803.47
2024-03-14T05:40:48.308Z,100811.53
2024-03-14T05:43:16.678Z,100813.50
2024-03-14T05:45:45.491Z,100820.72
2024-03-14T05:48:13.885Z,100819.03
2024-03-14T05:50:45.591Z,100817.94
2024-03-14T05:53:13.901Z,100812.59
2024-03-14T05:55:42.095Z,100814.84
2024-03-14T05:58:10.441Z,100818.50
2024-03-14T06:00:38.790Z,100815.91
2024-03-14T06:03:07.126Z,100819.59
2024-03-14T06:05:35.389Z,100823.34
2024-03-14T06:08:03.706Z,100825.50
2024-03-14T06:10:32.010Z,100827.31
2024-03-14T06:13:00.158Z,100827.22
2024-03-14T06:15:28.579Z,100836.41
2024-03-14T06:17:56.870Z,100835.09
2024-03-14T06:22:54.382Z,100829.63
2024-03-14T06:25:23.070Z,100837.09
2024-03-14T06:27:51.341Z,100842.06
2024-03-14T06:30:20.328Z,100839.38
2024-03-14T06:32:49.229Z,100850.16
2024-03-14T06:35:18.897Z,100855.53
2024-03-14T06:37:47.600Z,100850.09
2024-03-14T06:40:16.112Z,100852.44
2024-03-14T06:42:46.776Z,100854.22
2024-03-14T06:45:15.763Z,100844.75
2024-03-14T06:47:46.969Z,100848.44
2024-03-14T06:50:16.201Z,100845.56
2024-03-14T06:52:46.956Z,100849.97
2024-03-14T06:55:15.434Z,100847.81
2024-03-14T06:57:46.889Z,100850.38
2024-03-14T07:00:23.821Z,100850.03
2024-03-14T07:02:53.423Z,100850.34
2024-03-14T07:05:24.182Z,100851.13
2024-03-14T07:07:52.553Z,100849.38
2024-03-14T07:10:20.756Z,100850.44
2024-03-14T07:12:49.267Z,100852.66
2024-03-14T07:15:20.486Z,100851.25
2024-03-14T07:17:49.212Z,100857.50
2024-03-14T07:20:26.007Z,100851.22
2024-03-14T07:22:54.587Z,100854.41
2024-03-14T07:25:22.786Z,100856.09
2024-03-14T07:27:52.431Z,100856.38
2024-03-14T07:30:25.782Z,100857.44
2024-03-14T07:32:54.392Z,100853.44
2024-03-14T07:35:24.003Z,100852.69
2024-03-14T07:37:52.201Z,100852.59
2024-03-14T07:40:20.420Z,100858.84
2024-03-14T07:42:48.911Z,100863.47
2024-03-14T07:45:20.620Z,100860.34
2024-03-14T07:47:55.285Z,100858.75
2024-03-14T07:50:27.178Z,100856.47
2024-03-14T07:52:57.642Z,100862.16
2024-03-14T07:55:25.846Z,100856.69
2024-03-14T07:57:54.083Z,100863.19
2024-03-14T08:00:24.484Z,100860.53
2024-03-14T08:02:57.009Z,100864.91
2024-03-14T08:05:34.710Z,100862.13
2024-03-14T08:08:14.230Z,100863.34
2024-03-14T08:10:50.422Z,100863.28
2024-03-14T08:13:22.622Z,100864.63
2024-03-14T08:15:55.632Z,100871.56
2024-03-14T08:18:25.097Z,100873.00
2024-03-14T08:20:57.525Z,100867.94
2024-03-14T08:23:27.768Z,100864.47
2024-03-14T08:25:56.693Z,100865.88
2024-03-14T08:28:24.925Z,100868.75
2024-03-14T08:30:53.449Z,100868.94
2024-03-14T08:33:25.845Z,100872.66
2024-03-14T08:35:58.476Z,100872.81
2024-03-14T08:38:26.830Z,100875.31
2024-03-14T08:40:55.007Z,100876.94
2024-03-14T08:43:23.265Z,100872.44
2024-03-14T08:45:54.375Z,100875.63
2024-03-14T08:48:23.379Z,100879.69
2024-03-14T08:50:54.671Z,100889.41
2024-03-14T08:53:24.019Z,100890.16
2024-03-14T08:55:58.743Z,100885.53
2024-03-14T08:58:27.663Z,100892.28
2024-03-14T09:00:57.821Z,100888.22
2024-03-14T09:03:26.758Z,100886.78
2024-03-14T09:05:55.035Z,100883.88
2024-03-14T09:08:25.827Z,100889.84
2024-03-14T09:10:54.909Z,100895.47
2024-03-14T09:13:25.171Z,100883.88
2024-03-14T09:15:53.567Z,100886.88
2024-03-14T09:18:27.712Z,100892.31
2024-03-14T09:20:57.634Z,100883.72
2024-03-14T09:23:27.563Z,100888.00
2024-03-14T09:25:58.331Z,100886.19
2024-03-14T09:28:28.208Z,100888.66
2024-03-14T09:30:59.969Z,100889.66
2024-03-14T09:33:30.373Z,100897.13
2024-03-14T09:35:59.036Z,100895.13
2024-03-14T09:38:31.906Z,100888.63
2024-03-14T09:41:05.852Z,100898.78
2024-03-14T09:43:42.364Z,100889.72
2024-03-14T09:46:14.163Z,100885.16
2024-03-14T09:48:43.367Z,100891.72
2024-03-14T09:51:12.702Z,100894.91
2024-03-14T09:53:42.337Z,100890.44
2024-03-14T09:56:10.740Z,100889.81
2024-03-14T09:58:40.352Z,100884.78
2024-03-14T10:01:12.250Z,100883.00
2024-03-14T10:03:41.421Z,100886.31
2024-03-14T10:06:19.197Z,100883.19
2024-03-14T10:08:52.072Z,100881.53
2024-03-14T10:11:21.764Z,100885.72
2024-03-14T10:13:51.771Z,100885.38
2024-03-14T10:16:23.055Z,100877.38
2024-03-14T10:18:52.827Z,100884.22
2024-03-14T10:21:21.385Z,100882.66
2024-03-14T10:23:50.749Z,100869.56
2024-03-14T10:26:18.971Z,100877.19
2024-03-14T10:28:47.700Z,100877.22
2024-03-14T10:31:15.966Z,100879.06
2024-03-14T10:33:45.299Z,100877.53
2024-03-14T10:36:14.717Z,100873.44
2024-03-14T10:38:45.270Z,100872.28
2024-03-14T10:41:18.786Z,100870.78
2024-03-14T10:43:55.372Z,100869.13
2024-03-14T10:46:25.416Z,100865.16
2024-03-14T10:48:54.667Z,100861.06
2024-03-14T10:51:28.263Z,100862.66
2024-03-14T10:54:00.853Z,100863.00
2024-03-14T10:56:29.957Z,100861.56
2024-03-14T10:58:59.948Z,100853.63
2024-03-14T11:01:30.182Z,100857.91
2024-03-14T11:04:03.384Z,100856.44
2024-03-14T11:06:36.983Z,100862.53
2024-03-14T11:09:09.792Z,100852.31
2024-03-14T11:11:42.937Z,100859.91
2024-03-14T11:14:13.797Z,100857.56
2024-03-14T11:16:50.063Z,100853.44
2024-03-14T11:19:22.536Z,100859.06
2024-03-14T11:21:52.670Z,100858.94
2024-03-14T11:24:24.916Z,100859.41
2024-03-14T11:26:54.193Z,100853.31
2024-03-14T11:29:23.781Z,100858.59
2024-03-14T11:32:14.765Z,100854.25
2024-03-14T11:34:43.912Z,100853.25
2024-03-14T11:37:13.051Z,100848.00
2024-03-14T11:39:47.644Z,100844.66
2024-03-14T11:42:17.463Z,100839.78
2024-03-14T11:44:49.719Z,100840.66
2024-03-14T11:47:53.249Z,100840.94
2024-03-14T11:50:24.047Z,100836.00
2024-03-14T11:52:56.066Z,100835.25
2024-03-14T11:55:25.444Z,100833.47
2024-03-14T11:57:53.689Z,100827.38
2024-03-14T12:00:25.651Z,100821.91
2024-03-14T12:02:55.030Z,100824.69
2024-03-14T12:05:26.919Z,100826.38
2024-03-14T12:07:56.456Z,100819.78
2024-03-14T12:10:24.997Z,100813.19
2024-03-14T12:12:58.608Z,100820.13
2024-03-14T12:15:27.012Z,100813.56
2024-03-14T12:17:59.278Z,100816.66
2024-03-14T12:20:29.567Z,100807.88
2024-03-14T12:22:58.359Z,100802.16
2024-03-14T12:25:26.669Z,100803.19
2024-03-14T12:27:56.636Z,100799.69
2024-03-14T12:30:26.980Z,100796.13
2024-03-14T12:33:02.357Z,100792.53
2024-03-14T12:35:30.750Z,100785.13
2024-03-14T12:38:02.696Z,100783.94
2024-03-14T12:40:33.157Z,100783.44
2024-03-14T12:43:02.148Z,100781.78
2024-03-14T12:45:32.384Z,100782.00
2024-03-14T12:48:02.555Z,100776.03
2024-03-14T12:50:30.879Z,100776.50
2024-03-14T12:53:03.826Z,100778.75
2024-03-14T12:55:35.747Z,100778.84
2024-03-14T12:58:08.231Z,100774.78
2024-03-14T13:00:37.361Z,100766.47
2024-03-14T13:03:05.816Z,100769.44
2024-03-14T13:05:34.353Z,100760.91
2024-03-14T13:08:14.174Z,100762.47
2024-03-14T13:10:42.748Z,100758.03
2024-03-14T13:13:15.197Z,100755.06
2024-03-14T13:15:48.762Z,100748.94
2024-03-14T13:18:23.239Z,100751.84
2024-03-14T13:20:58.883Z,100742.53
2024-03-14T13:23:27.875Z,100736.38
2024-03-14T13:25:57.794Z,100737.69
2024-03-14T13:28:26.140Z,100737.19
2024-03-14T13:30:54.355Z,100727.47
2024-03-14T13:33:22.896Z,100725.28
2024-03-14T13:35:52.074Z,100725.34
2024-03-14T13:38:22.126Z,100719.81
2024-03-14T13:40:52.529Z,100718.34
2024-03-14T13:43:24.919Z,100714.94
2024-03-14T13:45:56.459Z,100719.53
2024-03-14T13:48:24.825Z,100703.06
2024-03-14T13:50:54.940Z,100710.06
2024-03-14T13:55:58.406Z,100705.16
2024-03-14T13:58:37.378Z,100699.28
2024-03-14T14:01:21.038Z,100696.75
2024-03-14T14:03:54.201Z,100691.84
2024-03-14T14:06:26.113Z,100689.53
2024-03-14T14:08:54.938Z,100688.53
2024-03-14T14:11:25.200Z,100686.50
2024-03-14T14:13:53.532Z,100689.47
2024-03-14T14:16:22.649Z,100685.00
2024-03-14T14:18:51.984Z,100682.59
2024-03-14T14:21:26.241Z,100681.59
2024-03-14T14:23:54.632Z,100674.53
2024-03-14T14:26:23.625Z,100675.31
2024-03-14T14:28:51.865Z,100673.25
2024-03-14T14:31:20.023Z,100675.09
2024-03-14T14:33:48.415Z,100669.97
2024-03-14T14:36:16.772Z,100675.56
2024-03-14T14:38:46.632Z,100671.13
2024-03-14T14:41:19.491Z,100676.03
2024-03-14T14:43:47.769Z,100671.63
2024-03-14T14:46:16.083Z,100670.69
2024-03-14T14:48:46.967Z,100665.63
2024-03-14T14:51:16.052Z,100663.03
2024-03-14T14:53:44.284Z,100667.69
2024-03-14T14:56:16.308Z,100665.22
2024-03-14T14:58:46.377Z,100668.28
2024-03-14T15:01:19.098Z,100659.09
2024-03-14T15:03:48.347Z,100666.84
2024-03-14T15:06:17.549Z,100664.41
2024-03-14T15:08:49.115Z,100660.53
2024-03-14T15:11:17.916Z,100662.88
2024-03-14T15:13:50.249Z,100657.72
2024-03-14T15:16:18.534Z,100653.97
2024-03-14T15:18:47.891Z,100651.19
2024-03-14T15:21:21.875Z,100655.16
2024-03-14T15:23:50.132Z,100658.00
2024-03-14T15:26:20.226Z,100653.75
2024-03-14T15:28:49.426Z,100652.63
2024-03-14T15:31:17.791Z,100645.00
2024-03-14T15:33:46.172Z,100642.56
2024-03-14T15:36:18.592Z,100641.59
2024-03-14T15:38:48.430Z,100647.38
2024-03-14T15:41:16.807Z,100635.00
2024-03-14T15:43:45.078Z,100647.56
2024-03-14T15:46:18.329Z,100642.09
2024-03-14T15:48:47.806Z,100644.59
2024-03-14T15:51:16.948Z,100643.44
2024-03-14T15:53:45.545Z,100645.25
2024-03-14T15:56:13.761Z,100641.81
2024-03-14T15:58:44.737Z,100644.28
2024-03-14T16:01:14.994Z,100637.84
2024-03-14T16:03:43.741Z,100636.50
2024-03-14T16:06:12.781Z,100632.88
2024-03-14T16:08:49.211Z,100637.50
2024-03-14T16:11:23.753Z,100640.81
2024-03-14T16:13:54.766Z,100638.50
2024-03-14T16:16:26.745Z,100638.50
2024-03-14T16:18:56.159Z,100637.50
2024-03-14T16:21:26.757Z,100641.44
2024-03-14T16:23:58.939Z,100644.56
2024-03-14T16:26:27.361Z,100638.78
2024-03-14T16:28:55.609Z,100642.56
2024-03-14T16:31:23.955Z,100641.72
2024-03-14T16:33:55.963Z,100636.09
2024-03-14T16:36:25.405Z,100643.16
2024-03-14T16:38:55.534Z,100641.81
2024-03-14T16:41:25.030Z,100643.38
2024-03-14T16:43:53.463Z,100649.31
2024-03-14T16:46:27.065Z,100646.63
2024-03-14T16:48:59.213Z,100657.50
2024-03-14T16:51:27.483Z,100657.16
2024-03-14T16:53:55.748Z,100649.53
2024-03-14T16:56:26.421Z,100654.78
2024-03-14T16:58:54.755Z,100663.47
2024-03-14T17:01:27.200Z,100661.47
2024-03-14T17:03:56.490Z,100663.88
2024-03-14T17:06:27.792Z,100663.47
2024-03-14T17:08:56.828Z,100665.38
2024-03-14T17:11:25.398Z,100666.41
2024-03-14T17:13:55.638Z,100666.06
2024-03-14T17:16:25.056Z,100662.69
2024-03-14T17:18:53.859Z,100670.78
2024-03-14T17:21:22.369Z,100668.09
2024-03-14T17:23:50.722Z,100672.28
2024-03-14T17:26:18.901Z,100666.94
2024-03-14T17:28:47.170Z,100667.28
2024-03-14T17:31:17.648Z,100670.59
2024-03-14T17:33:47.069Z,100667.75
2024-03-14T17:36:17.141Z,100676.25
2024-03-14T17:38:45.612Z,100676.59
2024-03-14T17:41:13.994Z,100691.44
2024-03-14T17:43:42.668Z,100694.50
2024-03-14T17:46:11.060Z,100693.56
2024-03-14T17:48:40.362Z,100697.00
2024-03-14T17:51:08.792Z,100699.25
2024-03-14T17:53:36.975Z,100714.28
2024-03-14T17:56:07.384Z,100711.13
2024-03-14T17:58:38.449Z,100712.09
2024-03-14T18:01:09.830Z,100711.41
2024-03-14T18:03:38.229Z,100719.41
2024-03-14T18:06:10.940Z,100714.97
2024-03-14T18:08:39.160Z,100715.78
2024-03-14T18:11:10.271Z,100728.59
2024-03-14T18:13:39.165Z,100722.50
2024-03-14T18:16:07.871Z,100728.41
2024-03-14T18:18:37.677Z,100723.13
2024-03-14T18:21:06.440Z,100722.00
2024-03-14T18:23:35.983Z,100719.63
2024-03-14T18:26:04.773Z,100724.41
2024-03-14T18:28:32.938Z,100733.78
2024-03-14T18:31:05.834Z,100735.13
2024-03-14T18:33:35.428Z,100739.22
2024-03-14T18:36:05.491Z,100735.19
2024-03-14T18:38:40.270Z,100732.84
2024-03-14T18:41:08.583Z,100733.22
2024-03-14T18:43:36.827Z,100730.31
2024-03-14T18:46:07.542Z,100739.63
2024-03-14T18:48:36.015Z,100736.69
2024-03-14T18:51:04.510Z,100740.53
2024-03-14T18:53:32.915Z,100749.47
2024-03-14T18:56:01.315Z,100744.47
2024-03-14T18:58:29.511Z,100752.59
2024-03-14T19:00:58.401Z,100746.78
2024-03-14T19:03:27.798Z,100748.13
2024-03-14T19:05:56.098Z,100743.38
2024-03-14T19:08:24.425Z,100755.91
2024-03-14T19:10:53.659Z,100758.06
2024-03-14T19:13:22.320Z,100752.25
2024-03-14T19:15:50.732Z,100753.31
2024-03-14T19:18:19.578Z,100755.47
2024-03-14T19:20:48.718Z,100762.75
2024-03-14T19:23:17.283Z,100755.25
2024-03-14T19:25:45.857Z,100752.31
2024-03-14T19:28:18.300Z,100750.91
2024-03-14T19:30:48.356Z,100752.91
2024-03-14T19:33:18.029Z,100754.81
2024-03-14T19:35:46.221Z,100754.13
2024-03-14T19:38:14.398Z,100760.44
2024-03-14T19:40:42.764Z,100755.44
2024-03-14T19:43:10.979Z,100752.81
2024-03-14T19:45:40.995Z,100758.53
2024-03-14T19:48:09.974Z,100763.19
2024-03-14T19:50:38.304Z,100763.28
2024-03-14T19:53:06.472Z,100771.25
2024-03-14T19:55:34.718Z,100762.81
2024-03-14T19:58:04.200Z,100764.75
2024-03-14T20:00:32.425Z,100759.66
2024-03-14T20:03:02.210Z,100764.97
2024-03-14T20:05:33.271Z,100760.78
2024-03-14T20:08:01.870Z,100765.41
2024-03-14T20:10:30.148Z,100774.25
2024-03-14T20:12:58.685Z,100764.47
2024-03-14T20:15:27.881Z,100758.41
2024-03-14T20:17:56.311Z,100757.56
2024-03-14T20:20:24.947Z,100763.88
2024-03-14T20:22:54.574Z,100759.97
2024-03-14T20:25:23.779Z,100759.25
2024-03-14T20:27:52.268Z,100760.22
2024-03-14T20:30:22.435Z,100767.47
2024-03-14T20:33:09.686Z,100758.06
2024-03-14T20:35:38.694Z,100774.84
2024-03-14T20:38:08.292Z,100771.75
2024-03-14T20:40:36.704Z,100772.91
2024-03-14T20:43:05.885Z,100774.09
2024-03-14T20:45:36.219Z,100776.72
2024-03-14T20:48:05.212Z,100779.44
2024-03-14T20:50:33.727Z,100773.63
2024-03-14T20:53:02.081Z,100768.72
2024-03-14T20:55:46.254Z,100773.47
2024-03-14T20:58:22.450Z,100772.06
2024-03-14T21:00:51.944Z,100770.50
2024-03-14T21:03:22.956Z,100767.16
2024-03-14T21:05:51.296Z,100765.63
2024-03-14T21:08:19.961Z,100772.75
2024-03-14T21:10:49.062Z,100765.25
2024-03-14T21:13:18.263Z,100772.50
2024-03-14T21:15:47.426Z,100767.38
2024-03-14T21:18:16.452Z,100765.84
2024-03-14T21:20:44.697Z,100769.38
2024-03-14T21:23:12.998Z,100765.22
2024-03-14T21:25:41.340Z,100762.00
2024-03-14T21:28:12.510Z,100765.59
2024-03-14T21:30:41.136Z,100764.75
2024-03-14T21:33:10.443Z,100768.28
2024-03-14T21:35:41.186Z,100763.06
2024-03-14T21:38:10.401Z,100762.25
2024-03-14T21:40:38.768Z,100762.50
2024-03-14T21:43:09.726Z,100755.59
2024-03-14T21:45:38.331Z,100756.31
2024-03-14T21:48:12.256Z,100755.59
2024-03-14T21:50:42.268Z,100760.09
2024-03-14T21:53:10.898Z,100760.81
2024-03-14T21:55:39.311Z,100760.47
2024-03-14T21:58:09.349Z,100765.47
2024-03-14T22:00:37.938Z,100754.91
2024-03-14T22:03:06.588Z,100761.78
2024-03-14T22:05:35.181Z,100765.22
2024-03-14T22:08:05.554Z,100764.16
2024-03-14T22:10:34.203Z,100762.41
2024-03-14T22:13:02.675Z,100763.22
2024-03-14T22:15:31.212Z,100765.00
2024-03-14T22:18:03.783Z,100759.41
2024-03-14T22:20:32.428Z,100758.53
2024-03-14T22:23:01.095Z,100758.19
2024-03-14T22:25:29.568Z,100754.47
2024-03-14T22:28:00.848Z,100765.59
2024-03-14T22:30:31.272Z,100764.34
2024-03-14T22:32:59.693Z,100763.63
2024-03-14T22:35:28.171Z,100758.41
2024-03-14T22:37:56.464Z,100760.41
2024-03-14T22:40:24.890Z,100765.53
2024-03-14T22:42:53.334Z,100759.38
2024-03-14T22:45:22.476Z,100760.31
2024-03-14T22:47:50.895Z,100760.53
2024-03-14T22:50:20.072Z,100764.31
2024-03-14T22:52:48.416Z,100755.03
2024-03-14T22:55:16.725Z,100756.31
2024-03-14T22:57:45.090Z,100766.19
2024-03-14T23:00:38.559Z,100765.59
2024-03-14T23:03:07.219Z,100754.97
2024-03-14T23:05:35.553Z,100761.56
2024-03-14T23:08:05.307Z,100755.16
2024-03-14T23:10:33.688Z,100755.16
2024-03-14T23:13:02.025Z,100754.84
2024-03-14T23:15:31.697Z,100753.50
2024-03-14T23:17:59.965Z,100749.41
2024-03-14T23:20:28.804Z,100758.28
2024-03-14T23:22:57.657Z,100759.31
2024-03-14T23:25:26.055Z,100754.22
2024-03-14T23:27:54.402Z,100765.69
2024-03-14T23:30:22.892Z,100757.78
2024-03-14T23:32:51.151Z,100753.28
2024-03-14T23:35:19.764Z,100752.13
2024-03-14T23:37:49.363Z,100756.63
2024-03-14T23:40:18.616Z,100756.63
2024-03-14T23:42:48.171Z,100761.72
2024-03-14T23:45:19.222Z,100750.44
2024-03-14T23:47:50.802Z,100759.31
2024-03-14T23:50:21.329Z,100756.94
2024-03-14T23:52:51.012Z,100754.09
2024-03-14T23:55:20.917Z,100753.59
2024-03-14T23:57:49.720Z,100759.97
